Chickasha Municipal Airport


Codes: KCHK/CHK
Name: Chickasha Municipal Airport
City: Chickasha
Country: United States
Elevation: 1152 ft.
Website:
Wikipedia:

Photos at Chickasha Municipal Airport


   Photos courtesy of SpottingLog. You can add your own sightings and photos by signing up for a free trial today.



No photos found.

Weather at Chickasha Municipal Airport


Time (UTC)DescriptionTempratureWindCloud coverageVisibilityPressureHumidity
16-Jun-2024 03:00Clear Sky30°C13 mph, S0%10000m1009hPa54%
16-Jun-2024 06:00Clear Sky27°C16 mph, SE9%10000m1009hPa64%
16-Jun-2024 09:00Broken Clouds23°C11 mph, S64%10000m1010hPa77%
16-Jun-2024 12:00Broken Clouds24°C13 mph, S81%10000m1011hPa72%
16-Jun-2024 15:00Broken Clouds28°C18 mph, S69%10000m1011hPa64%
16-Jun-2024 18:00Broken Clouds32°C20 mph, S70%10000m1010hPa47%
16-Jun-2024 21:00Clear Sky33°C20 mph, S4%10000m1008hPa42%
17-Jun-2024 00:00Clear Sky31°C18 mph, S1%10000m1008hPa49%
17-Jun-2024 03:00Clear Sky25°C9 mph, S0%10000m1009hPa65%
17-Jun-2024 06:00Clear Sky24°C13 mph, SE0%10000m1009hPa74%
17-Jun-2024 09:00Clear Sky24°C13 mph, S0%10000m1009hPa69%
17-Jun-2024 12:00Clear Sky24°C16 mph, S1%10000m1009hPa73%
17-Jun-2024 15:00Clear Sky28°C20 mph, S2%10000m1009hPa59%
17-Jun-2024 18:00Clear Sky32°C20 mph, S1%10000m1008hPa46%
17-Jun-2024 21:00Clear Sky33°C22 mph, S0%10000m1006hPa41%
18-Jun-2024 00:00Clear Sky31°C20 mph, S0%10000m1006hPa55%
18-Jun-2024 03:00Clear Sky27°C20 mph, SE0%10000m1008hPa71%
18-Jun-2024 06:00Clear Sky25°C25 mph, SE0%10000m1007hPa77%
18-Jun-2024 09:00Clear Sky24°C22 mph, S5%10000m1007hPa80%
18-Jun-2024 12:00Few Clouds23°C20 mph, S13%10000m1009hPa84%
18-Jun-2024 15:00Scattered Clouds27°C25 mph, S28%10000m1010hPa68%
18-Jun-2024 18:00Broken Clouds27°C22 mph, S54%10000m1010hPa71%
18-Jun-2024 21:00Overcast Clouds29°C20 mph, S88%10000m1009hPa61%
19-Jun-2024 00:00Overcast Clouds29°C18 mph, S91%10000m1009hPa63%
19-Jun-2024 03:00Clear Sky25°C18 mph, SE8%10000m1011hPa79%
19-Jun-2024 06:00Clear Sky23°C18 mph, SE10%10000m1013hPa84%
19-Jun-2024 09:00Few Clouds21°C18 mph, SE23%10000m1013hPa88%
19-Jun-2024 12:00Few Clouds21°C9 mph, SE20%10000m1016hPa93%
19-Jun-2024 15:00Overcast Clouds23°C11 mph, SE88%10000m1018hPa82%
19-Jun-2024 18:00Light Rain27°C11 mph, SE90%10000m1018hPa66%
19-Jun-2024 21:00Light Rain27°C16 mph, SE99%10000m1017hPa63%
20-Jun-2024 00:00Light Rain26°C16 mph, SE100%10000m1017hPa71%
20-Jun-2024 03:00Overcast Clouds23°C9 mph, SE100%10000m1019hPa83%
20-Jun-2024 06:00Overcast Clouds20°C7 mph, SE100%10000m1020hPa95%
20-Jun-2024 09:00Light Rain21°C4 mph, E100%10000m1020hPa88%
20-Jun-2024 12:00Overcast Clouds21°C4 mph, SE100%10000m1021hPa87%
20-Jun-2024 15:00Overcast Clouds22°C4 mph, SE100%10000m1022hPa82%
20-Jun-2024 18:00Light Rain22°C4 mph, SE100%10000m1023hPa83%
20-Jun-2024 21:00Overcast Clouds24°C4 mph, E100%10000m1022hPa71%
21-Jun-2024 00:00Overcast Clouds23°C4 mph, SE100%10000m1021hPa75%